createdAt,value
2022-12-05T00:00:26.385Z,7.50
2022-12-05T00:01:38.762Z,6.15
2022-12-05T00:02:41.208Z,7.93
2022-12-05T00:03:44.258Z,9.13
2022-12-05T00:04:46.613Z,8.15
2022-12-05T00:05:49.237Z,6.50
2022-12-05T00:06:51.578Z,8.48
2022-12-05T00:07:53.881Z,8.07
2022-12-05T00:08:56.994Z,9.52
2022-12-05T00:09:59.748Z,9.13
2022-12-05T00:11:02.216Z,9.07
2022-12-05T00:12:04.783Z,9.38
2022-12-05T00:13:07.134Z,6.38
2022-12-05T00:14:10.261Z,7.90
2022-12-05T00:15:12.702Z,10.43
2022-12-05T00:16:18.252Z,6.88
2022-12-05T00:17:20.737Z,8.70
2022-12-05T00:18:23.021Z,7.30
2022-12-05T00:19:25.303Z,13.27
2022-12-05T00:20:27.687Z,6.03
2022-12-05T00:21:32.827Z,8.00
2022-12-05T00:22:38.663Z,8.55
2022-12-05T00:23:41.483Z,9.30
2022-12-05T00:24:43.785Z,7.18
2022-12-05T00:25:46.071Z,8.15
2022-12-05T00:26:48.421Z,7.57
2022-12-05T00:27:50.806Z,8.13
2022-12-05T00:28:53.603Z,8.75
2022-12-05T00:29:56.357Z,7.90
2022-12-05T00:31:06.280Z,8.50
2022-12-05T00:32:08.665Z,7.90
2022-12-05T00:33:10.993Z,6.30
2022-12-05T00:34:13.503Z,8.18
2022-12-05T00:35:15.895Z,7.53
2022-12-05T00:36:23.976Z,7.72
2022-12-05T00:37:26.319Z,8.88
2022-12-05T00:38:28.763Z,7.18
2022-12-05T00:39:31.061Z,7.15
2022-12-05T00:40:36.161Z,7.72
2022-12-05T00:41:38.883Z,7.00
2022-12-05T00:42:41.240Z,8.25
2022-12-05T00:43:43.735Z,5.85
2022-12-05T00:44:46.125Z,6.80
2022-12-05T00:45:48.449Z,7.40
2022-12-05T00:46:50.794Z,8.68
2022-12-05T00:47:53.125Z,8.70
2022-12-05T00:48:56.971Z,6.85
2022-12-05T00:49:59.526Z,9.35
2022-12-05T00:51:11.134Z,8.85
2022-12-05T00:53:15.578Z,9.90
2022-12-05T00:54:17.968Z,9.43
2022-12-05T00:55:20.295Z,7.72
2022-12-05T00:56:24.590Z,8.77
2022-12-05T00:57:26.984Z,8.55
2022-12-05T00:58:29.513Z,9.15
2022-12-05T00:59:31.849Z,9.80
2022-12-05T01:00:34.296Z,9.60
2022-12-05T01:01:39.732Z,6.40
2022-12-05T01:02:42.071Z,6.60
2022-12-05T01:03:45.860Z,8.05
2022-12-05T01:04:48.170Z,8.38
2022-12-05T01:05:50.490Z,6.10
2022-12-05T01:06:57.281Z,7.28
2022-12-05T01:07:59.637Z,7.82
2022-12-05T01:09:02.938Z,7.20
2022-12-05T01:10:05.992Z,7.65
2022-12-05T01:11:09.422Z,8.23
2022-12-05T01:12:11.754Z,8.80
2022-12-05T01:13:14.068Z,7.18
2022-12-05T01:14:17.883Z,6.68
2022-12-05T01:15:20.213Z,7.60
2022-12-05T01:16:35.315Z,6.95
2022-12-05T01:17:37.919Z,7.85
2022-12-05T01:18:40.243Z,8.30
2022-12-05T01:19:42.535Z,8.70
2022-12-05T01:20:45.796Z,7.72
2022-12-05T01:21:48.621Z,7.28
2022-12-05T01:22:51.957Z,7.22
2022-12-05T01:23:54.436Z,6.18
2022-12-05T01:24:58.086Z,7.85
2022-12-05T01:26:00.457Z,9.63
2022-12-05T01:27:03.235Z,8.80
2022-12-05T01:28:05.527Z,6.10
2022-12-05T01:29:08.242Z,8.23
2022-12-05T01:30:10.901Z,7.82
2022-12-05T01:31:24.335Z,7.78
2022-12-05T01:32:26.616Z,6.35
2022-12-05T01:33:28.870Z,8.30
2022-12-05T01:34:31.161Z,5.78
2022-12-05T01:35:35.045Z,10.23
2022-12-05T01:36:39.242Z,5.93
2022-12-05T01:37:41.523Z,8.20
2022-12-05T01:38:44.358Z,6.78
2022-12-05T01:39:48.241Z,8.68
2022-12-05T01:40:50.470Z,5.80
2022-12-05T01:41:52.804Z,9.30
2022-12-05T01:42:55.350Z,5.72
2022-12-05T01:44:07.241Z,6.72
2022-12-05T01:45:20.925Z,6.32
2022-12-05T01:46:23.656Z,4.90
2022-12-05T01:47:31.142Z,5.97
2022-12-05T01:48:36.089Z,4.97
2022-12-05T01:49:41.518Z,6.68
2022-12-05T01:50:44.954Z,6.07
2022-12-05T01:52:20.740Z,7.53
2022-12-05T01:53:23.706Z,7.68
2022-12-05T01:54:26.138Z,6.38
2022-12-05T01:55:28.799Z,5.55
2022-12-05T01:56:32.824Z,6.60
2022-12-05T01:57:35.270Z,5.40
2022-12-05T01:58:40.362Z,5.38
2022-12-05T01:59:47.483Z,5.63
2022-12-05T02:00:49.990Z,6.97
2022-12-05T02:01:52.480Z,6.82
2022-12-05T02:02:58.766Z,10.15
2022-12-05T02:04:01.879Z,12.48
2022-12-05T02:05:06.675Z,17.55
2022-12-05T02:06:09.637Z,25.40
2022-12-05T02:07:11.998Z,17.60
2022-12-05T02:08:14.376Z,12.77
2022-12-05T02:09:16.719Z,14.18
2022-12-05T02:10:19.134Z,12.95
2022-12-05T02:11:24.179Z,8.48
2022-12-05T02:12:27.903Z,11.23
2022-12-05T02:14:12.501Z,11.25
2022-12-05T02:15:47.679Z,8.15
2022-12-05T02:17:10.875Z,5.40
2022-12-05T02:18:28.974Z,6.07
2022-12-05T02:19:43.841Z,23.30
2022-12-05T02:20:59.730Z,19.27
2022-12-05T02:22:35.755Z,10.70
2022-12-05T02:23:41.013Z,14.40
2022-12-05T02:24:57.441Z,9.88
2022-12-05T02:26:17.966Z,9.48
2022-12-05T02:27:50.967Z,9.57
2022-12-05T02:29:05.718Z,8.27
2022-12-05T02:30:22.527Z,7.53
2022-12-05T02:32:04.626Z,6.78
2022-12-05T02:33:34.408Z,5.20
2022-12-05T02:34:42.438Z,7.50
2022-12-05T02:35:55.926Z,7.93
2022-12-05T02:37:14.383Z,8.38
2022-12-05T02:38:34.691Z,7.90
2022-12-05T02:39:54.664Z,6.03
2022-12-05T02:41:17.790Z,6.50
2022-12-05T02:42:34.864Z,45.95
2022-12-05T02:43:44.588Z,66.18
2022-12-05T02:45:09.842Z,49.90
2022-12-05T02:46:25.146Z,42.47
2022-12-05T02:47:30.654Z,29.17
2022-12-05T02:48:35.005Z,20.00
2022-12-05T02:49:37.613Z,18.95
2022-12-05T02:50:42.137Z,17.13
2022-12-05T02:51:51.972Z,15.65
2022-12-05T02:52:58.309Z,13.40
2022-12-05T02:54:08.087Z,13.60
2022-12-05T02:55:10.838Z,13.48
2022-12-05T02:56:13.813Z,12.43
2022-12-05T02:57:17.756Z,20.13
2022-12-05T02:58:26.910Z,12.40
2022-12-05T02:59:29.170Z,13.52
2022-12-05T03:00:31.591Z,11.90
2022-12-05T03:01:34.004Z,14.07
2022-12-05T03:02:39.625Z,11.45
2022-12-05T03:03:41.998Z,10.43
2022-12-05T03:04:44.835Z,11.45
2022-12-05T03:06:07.525Z,12.25
2022-12-05T03:07:12.129Z,12.80
2022-12-05T03:08:21.667Z,10.60
2022-12-05T03:09:29.970Z,54.17
2022-12-05T03:10:33.867Z,90.05
2022-12-05T03:11:45.335Z,70.13
2022-12-05T03:12:57.210Z,61.50
2022-12-05T03:14:03.571Z,55.05
2022-12-05T03:15:22.275Z,53.03
2022-12-05T03:16:35.807Z,31.52
2022-12-05T03:17:55.582Z,32.13
2022-12-05T03:19:05.737Z,27.83
2022-12-05T03:20:20.796Z,24.50
2022-12-05T03:21:33.333Z,21.67
2022-12-05T03:22:42.445Z,20.27
2022-12-05T03:23:52.496Z,16.60
2022-12-05T03:24:55.111Z,19.42
2022-12-05T03:26:05.061Z,16.63
2022-12-05T03:27:41.738Z,18.13
2022-12-05T03:29:22.388Z,21.20
2022-12-05T03:30:26.217Z,17.90
2022-12-05T03:31:40.398Z,18.67
2022-12-05T03:33:05.655Z,16.08
2022-12-05T03:34:22.169Z,20.60
2022-12-05T03:35:43.005Z,14.35
2022-12-05T03:36:51.656Z,15.45
2022-12-05T03:37:58.054Z,17.10
2022-12-05T03:39:10.952Z,10.07
2022-12-05T03:40:31.151Z,13.95
2022-12-05T03:41:55.067Z,12.70
2022-12-05T03:43:29.107Z,12.38
2022-12-05T03:44:44.494Z,12.20
2022-12-05T03:45:49.014Z,10.35
2022-12-05T03:47:03.489Z,12.60
2022-12-05T03:48:32.562Z,11.48
2022-12-05T03:49:47.170Z,12.85
2022-12-05T03:50:53.581Z,10.32
2022-12-05T03:52:18.130Z,13.27
2022-12-05T03:53:27.706Z,9.43
2022-12-05T03:54:35.640Z,11.55
2022-12-05T03:55:41.484Z,12.10
2022-12-05T03:56:51.341Z,10.70
2022-12-05T03:58:05.902Z,15.07
2022-12-05T03:59:35.805Z,12.38
2022-12-05T04:00:42.786Z,10.50
2022-12-05T04:01:48.532Z,10.48
2022-12-05T04:02:54.237Z,10.52
2022-12-05T04:04:13.824Z,10.82
2022-12-05T04:05:19.103Z,11.18
2022-12-05T04:06:25.870Z,10.55
2022-12-05T04:07:32.023Z,9.50
2022-12-05T04:08:43.205Z,12.07
2022-12-05T04:10:00.208Z,291.38
2022-12-05T04:11:07.284Z,372.13
2022-12-05T04:12:21.982Z,291.73
2022-12-05T04:13:35.767Z,186.95
2022-12-05T04:14:43.284Z,147.30
2022-12-05T04:16:17.666Z,101.32
2022-12-05T04:17:53.231Z,66.13
2022-12-05T04:19:03.908Z,53.28
2022-12-05T04:20:49.214Z,45.45
2022-12-05T04:21:55.498Z,40.03
2022-12-05T04:22:58.431Z,41.50
2022-12-05T04:24:19.581Z,34.90
2022-12-05T04:25:33.869Z,35.15
2022-12-05T04:26:36.804Z,33.22
2022-12-05T04:27:53.900Z,40.08
2022-12-05T04:29:04.318Z,35.95
2022-12-05T04:30:14.637Z,38.35
2022-12-05T04:31:32.158Z,36.05
2022-12-05T04:32:46.292Z,43.35
2022-12-05T04:34:02.602Z,42.25
2022-12-05T04:35:13.727Z,40.67
2022-12-05T04:36:37.797Z,41.95
2022-12-05T04:37:45.391Z,35.97
2022-12-05T04:39:02.233Z,36.25
2022-12-05T04:40:11.715Z,36.78
2022-12-05T04:41:22.685Z,37.83
2022-12-05T04:42:28.885Z,41.17
2022-12-05T04:43:36.692Z,33.35
2022-12-05T04:44:48.608Z,33.00
2022-12-05T04:45:52.199Z,35.55
2022-12-05T04:46:56.667Z,36.50
2022-12-05T04:48:04.776Z,31.98
2022-12-05T04:49:10.236Z,39.35
2022-12-05T04:50:16.300Z,33.92
2022-12-05T04:51:23.582Z,35.08
2022-12-05T04:52:28.051Z,31.85
2022-12-05T04:53:31.529Z,27.42
2022-12-05T04:54:55.260Z,34.30
2022-12-05T04:56:00.801Z,43.28
2022-12-05T04:57:12.037Z,80.47
2022-12-05T04:58:18.439Z,58.45
2022-12-05T04:59:21.242Z,55.78
2022-12-05T05:00:23.693Z,51.30
2022-12-05T05:01:41.700Z,43.53
2022-12-05T05:03:01.288Z,37.97
2022-12-05T05:04:14.618Z,29.17
2022-12-05T05:05:19.630Z,32.75
2022-12-05T05:06:21.916Z,30.08
2022-12-05T05:07:24.232Z,28.50
2022-12-05T05:08:31.063Z,30.15
2022-12-05T05:09:33.581Z,35.92
2022-12-05T05:10:41.783Z,29.25
2022-12-05T05:11:44.178Z,30.20
2022-12-05T05:12:46.502Z,29.52
2022-12-05T05:13:49.563Z,29.30
2022-12-05T05:14:52.015Z,32.53
2022-12-05T05:15:54.416Z,29.05
2022-12-05T05:16:57.124Z,29.83
2022-12-05T05:17:59.540Z,29.30
2022-12-05T05:19:02.258Z,31.10
2022-12-05T05:20:23.619Z,29.90
2022-12-05T05:21:32.276Z,28.55
2022-12-05T05:22:34.599Z,24.63
2022-12-05T05:23:36.954Z,27.27
2022-12-05T05:24:39.342Z,28.05
2022-12-05T05:25:41.576Z,27.15
2022-12-05T05:26:45.658Z,31.17
2022-12-05T05:27:52.450Z,26.80
2022-12-05T05:28:55.181Z,27.45
2022-12-05T05:29:57.779Z,27.58
2022-12-05T05:31:04.887Z,26.15
2022-12-05T05:32:07.292Z,30.40
2022-12-05T05:33:09.634Z,25.23
2022-12-05T05:34:13.345Z,27.67
2022-12-05T05:35:15.959Z,25.80
2022-12-05T05:36:19.379Z,24.10
2022-12-05T05:37:21.716Z,27.52
2022-12-05T05:38:24.078Z,24.63
2022-12-05T05:39:28.257Z,25.52
2022-12-05T05:40:30.684Z,25.65
2022-12-05T05:41:35.781Z,26.65
2022-12-05T05:42:46.943Z,23.38
2022-12-05T05:43:49.983Z,23.52
2022-12-05T05:44:52.332Z,27.02
2022-12-05T05:45:55.565Z,29.02
2022-12-05T05:46:57.949Z,23.95
2022-12-05T05:48:00.400Z,25.50
2022-12-05T05:49:03.139Z,24.73
2022-12-05T05:50:06.432Z,23.20
2022-12-05T05:51:11.207Z,21.15
2022-12-05T05:52:13.717Z,25.95
2022-12-05T05:53:15.989Z,21.92
2022-12-05T05:54:18.232Z,23.42
2022-12-05T05:55:20.629Z,25.27
2022-12-05T05:56:23.193Z,24.95
2022-12-05T05:57:25.473Z,25.20
2022-12-05T05:58:27.760Z,23.50
2022-12-05T05:59:30.076Z,26.75
2022-12-05T06:00:32.408Z,22.77
2022-12-05T06:01:34.685Z,27.90
2022-12-05T06:02:37.165Z,21.88
2022-12-05T06:03:40.646Z,21.48
2022-12-05T06:04:43.121Z,21.73
2022-12-05T06:05:50.052Z,24.00
2022-12-05T06:06:55.236Z,24.38
2022-12-05T06:07:57.611Z,23.95
2022-12-05T06:09:00.008Z,20.73
2022-12-05T06:10:02.609Z,25.00
2022-12-05T06:11:06.693Z,24.55
2022-12-05T06:12:09.027Z,24.55
2022-12-05T06:13:11.346Z,22.42
2022-12-05T06:14:13.703Z,22.00
2022-12-05T06:15:16.148Z,20.60
2022-12-05T06:16:19.370Z,22.20
2022-12-05T06:17:21.713Z,21.55
2022-12-05T06:18:23.996Z,20.40
2022-12-05T06:19:26.377Z,19.58
2022-12-05T06:20:28.808Z,20.02
2022-12-05T06:21:31.409Z,20.48
2022-12-05T06:22:33.768Z,19.00
2022-12-05T06:23:37.113Z,20.63
2022-12-05T06:24:39.476Z,22.73
2022-12-05T06:25:48.025Z,20.58
2022-12-05T06:26:50.379Z,24.35
2022-12-05T06:27:52.663Z,25.08
2022-12-05T06:28:55.047Z,20.75
2022-12-05T06:29:57.587Z,21.35
2022-12-05T06:31:00.106Z,22.23
2022-12-05T06:32:02.864Z,19.70
2022-12-05T06:33:05.355Z,22.58
2022-12-05T06:34:07.625Z,22.10
2022-12-05T06:35:15.859Z,19.42
2022-12-05T06:36:21.356Z,32.85
2022-12-05T06:37:23.668Z,19.65
2022-12-05T06:38:25.943Z,22.17
2022-12-05T06:39:28.611Z,22.70
2022-12-05T06:40:30.913Z,21.58
2022-12-05T06:41:33.675Z,26.20
2022-12-05T06:42:35.964Z,31.75
2022-12-05T06:43:38.291Z,28.45
2022-12-05T06:44:40.614Z,20.65
2022-12-05T06:45:42.958Z,23.55
2022-12-05T06:46:45.296Z,18.90
2022-12-05T06:47:47.651Z,27.92
2022-12-05T06:49:01.690Z,22.25
2022-12-05T06:50:04.393Z,25.23
2022-12-05T06:51:10.549Z,20.33
2022-12-05T06:52:12.839Z,21.95
2022-12-05T06:53:15.121Z,23.70
2022-12-05T06:54:17.398Z,25.50
2022-12-05T06:55:19.691Z,23.33
2022-12-05T06:56:22.087Z,24.23
2022-12-05T06:57:24.376Z,24.17
2022-12-05T06:58:27.718Z,25.40
2022-12-05T06:59:30.014Z,22.58
2022-12-05T07:00:50.971Z,24.10
2022-12-05T07:01:53.330Z,24.55
2022-12-05T07:02:55.673Z,21.52
2022-12-05T07:03:58.962Z,23.35
2022-12-05T07:05:01.267Z,22.48
2022-12-05T07:06:06.184Z,22.17
2022-12-05T07:07:08.649Z,22.25
2022-12-05T07:08:11.000Z,26.13
2022-12-05T07:09:13.560Z,21.35
2022-12-05T07:10:16.039Z,22.77
2022-12-05T07:11:18.557Z,21.65
2022-12-05T07:12:20.883Z,20.02
2022-12-05T07:13:23.256Z,22.55
2022-12-05T07:14:46.335Z,21.58
2022-12-05T07:15:48.885Z,20.05
2022-12-05T07:16:51.579Z,21.30
2022-12-05T07:17:53.932Z,25.65
2022-12-05T07:18:56.508Z,20.08
2022-12-05T07:19:59.026Z,23.15
2022-12-05T07:21:12.296Z,17.85
2022-12-05T07:22:16.429Z,17.63
2022-12-05T07:23:18.918Z,20.65
2022-12-05T07:24:21.246Z,19.02
2022-12-05T07:25:24.742Z,20.17
2022-12-05T07:26:27.232Z,21.40
2022-12-05T07:27:29.683Z,17.05
2022-12-05T07:28:32.084Z,22.40
2022-12-05T07:29:34.471Z,22.08
2022-12-05T07:30:36.827Z,19.83
2022-12-05T07:31:39.191Z,17.55
2022-12-05T07:32:41.620Z,22.20
2022-12-05T07:33:44.582Z,13.98
2022-12-05T07:34:49.692Z,14.70
2022-12-05T07:36:06.274Z,14.07
2022-12-05T07:37:08.702Z,13.80
2022-12-05T07:38:11.086Z,14.40
2022-12-05T07:39:13.402Z,14.85
2022-12-05T07:40:16.158Z,15.27
2022-12-05T07:41:23.207Z,13.98
2022-12-05T07:42:25.543Z,13.88
2022-12-05T07:43:27.799Z,14.48
2022-12-05T07:44:30.252Z,19.30
2022-12-05T07:45:34.665Z,20.60
2022-12-05T07:46:38.110Z,18.50
2022-12-05T07:47:40.478Z,13.13
2022-12-05T07:48:42.911Z,14.88
2022-12-05T07:49:45.363Z,21.40
2022-12-05T07:50:47.729Z,18.60
2022-12-05T07:51:50.029Z,16.88
2022-12-05T07:52:52.943Z,14.55
2022-12-05T07:53:55.251Z,16.65
2022-12-05T07:54:58.403Z,12.50
2022-12-05T07:56:02.368Z,11.73
2022-12-05T07:57:04.683Z,14.75
2022-12-05T07:58:07.738Z,12.85
2022-12-05T07:59:10.087Z,11.88
2022-12-05T08:00:13.153Z,15.88
2022-12-05T08:01:18.703Z,14.48
2022-12-05T08:02:21.156Z,12.43
2022-12-05T08:03:23.692Z,15.85
2022-12-05T08:04:26.028Z,21.48
2022-12-05T08:05:28.334Z,14.85
2022-12-05T08:06:31.313Z,14.48
2022-12-05T08:07:33.755Z,14.02
2022-12-05T08:08:36.604Z,13.00
2022-12-05T08:09:38.901Z,12.40
2022-12-05T08:10:41.252Z,14.50
2022-12-05T08:11:48.174Z,15.15
2022-12-05T08:12:53.404Z,15.13
2022-12-05T08:13:56.934Z,16.52
2022-12-05T08:14:59.245Z,15.88
2022-12-05T08:16:06.931Z,17.05
2022-12-05T08:17:09.217Z,18.23
2022-12-05T08:18:11.610Z,37.10
2022-12-05T08:19:14.042Z,32.80
2022-12-05T08:20:16.344Z,25.15
2022-12-05T08:21:19.735Z,20.13
2022-12-05T08:22:22.018Z,19.65
2022-12-05T08:23:24.369Z,15.80
2022-12-05T08:24:26.713Z,14.63
2022-12-05T08:25:29.109Z,14.25
2022-12-05T08:26:32.236Z,13.80
2022-12-05T08:27:34.611Z,13.93
2022-12-05T08:28:37.569Z,14.48
2022-12-05T08:29:40.025Z,18.60
2022-12-05T08:30:42.383Z,12.05
2022-12-05T08:31:49.895Z,11.20
2022-12-05T08:32:52.742Z,10.93
2022-12-05T08:33:59.255Z,11.15
2022-12-05T08:35:01.936Z,13.50
2022-12-05T08:36:06.894Z,10.38
2022-12-05T08:37:09.323Z,12.55
2022-12-05T08:38:11.626Z,7.80
2022-12-05T08:39:16.397Z,10.13
2022-12-05T08:40:18.697Z,9.85
2022-12-05T08:41:21.017Z,20.05
2022-12-05T08:42:23.346Z,99.93
2022-12-05T08:43:25.681Z,77.80
2022-12-05T08:44:27.992Z,67.55
2022-12-05T08:45:30.303Z,71.85
2022-12-05T08:46:34.491Z,51.03
2022-12-05T08:47:36.883Z,39.95
2022-12-05T08:48:39.526Z,36.47
2022-12-05T08:49:41.867Z,30.15
2022-12-05T08:50:44.279Z,25.27
2022-12-05T08:51:46.889Z,25.33
2022-12-05T08:52:49.334Z,20.63
2022-12-05T08:53:51.637Z,32.55
2022-12-05T08:54:53.957Z,30.40
2022-12-05T08:55:56.315Z,31.63
2022-12-05T08:56:59.314Z,22.80
2022-12-05T08:58:01.644Z,23.80
2022-12-05T08:59:05.953Z,21.58
2022-12-05T09:00:09.044Z,23.45
2022-12-05T09:01:13.644Z,21.02
2022-12-05T09:02:16.167Z,19.08
2022-12-05T09:03:18.552Z,22.17
2022-12-05T09:04:20.977Z,21.50
2022-12-05T09:05:28.452Z,24.40
2022-12-05T09:06:32.454Z,14.40
2022-12-05T09:07:34.832Z,23.40
2022-12-05T09:08:37.854Z,20.17
2022-12-05T09:09:40.220Z,18.67
2022-12-05T09:10:42.538Z,19.40
2022-12-05T09:11:50.749Z,16.15
2022-12-05T09:12:53.229Z,18.02
2022-12-05T09:13:57.644Z,18.45
2022-12-05T09:15:00.395Z,14.13
2022-12-05T09:16:11.660Z,17.65
2022-12-05T09:17:14.073Z,15.60
2022-12-05T09:18:16.340Z,17.88
2022-12-05T09:19:25.714Z,16.90
2022-12-05T09:20:28.039Z,32.72
2022-12-05T09:21:31.795Z,21.90
2022-12-05T09:22:34.415Z,20.75
2022-12-05T09:23:36.757Z,19.42
2022-12-05T09:24:39.085Z,18.55
2022-12-05T09:25:42.692Z,19.80
2022-12-05T09:26:45.441Z,15.77
2022-12-05T09:27:47.785Z,18.08
2022-12-05T09:28:51.341Z,19.50
2022-12-05T09:29:53.719Z,14.65
2022-12-05T09:30:58.056Z,15.77
2022-12-05T09:32:00.485Z,13.82
2022-12-05T09:33:02.796Z,13.85
2022-12-05T09:34:05.910Z,15.40
2022-12-05T09:35:08.699Z,13.95
2022-12-05T09:36:25.861Z,15.90
2022-12-05T09:37:39.155Z,12.13
2022-12-05T09:38:42.749Z,12.85
2022-12-05T09:39:45.241Z,15.60
2022-12-05T09:41:04.640Z,13.27
2022-12-05T09:42:26.187Z,11.77
2022-12-05T09:43:47.268Z,12.15
2022-12-05T09:45:20.760Z,14.73
2022-12-05T09:46:52.197Z,8.75
2022-12-05T09:48:05.152Z,10.13
2022-12-05T09:49:11.715Z,11.05
2022-12-05T09:50:28.329Z,13.30
2022-12-05T09:51:32.149Z,10.48
2022-12-05T09:52:39.657Z,13.10
2022-12-05T09:53:44.136Z,9.35
2022-12-05T09:54:47.080Z,9.65
2022-12-05T09:55:51.553Z,11.20
2022-12-05T09:56:54.189Z,14.52
2022-12-05T09:58:00.387Z,11.88
2022-12-05T09:59:02.832Z,11.75
2022-12-05T10:00:09.679Z,12.75
2022-12-05T10:01:42.518Z,12.43
2022-12-05T10:02:52.136Z,12.02
2022-12-05T10:04:07.113Z,10.90
2022-12-05T10:05:25.068Z,14.90
2022-12-05T10:06:39.311Z,15.25
2022-12-05T10:07:54.981Z,12.45
2022-12-05T10:09:31.339Z,15.73
2022-12-05T10:11:02.323Z,17.00
2022-12-05T10:12:23.620Z,12.27
2022-12-05T10:14:07.623Z,11.05
2022-12-05T10:15:10.048Z,9.18
2022-12-05T10:16:30.669Z,11.98
2022-12-05T10:17:36.058Z,11.00
2022-12-05T10:18:50.453Z,10.18
2022-12-05T10:19:56.167Z,11.13
2022-12-05T10:21:23.876Z,9.85
2022-12-05T10:22:37.402Z,10.68
2022-12-05T10:23:57.912Z,19.10
2022-12-05T10:25:03.894Z,11.07
2022-12-05T10:26:11.139Z,12.98
2022-12-05T10:27:21.381Z,11.63
2022-12-05T10:28:40.237Z,10.93
2022-12-05T10:29:58.453Z,17.20
2022-12-05T10:31:05.700Z,16.83
2022-12-05T10:32:22.317Z,13.98
2022-12-05T10:33:28.970Z,12.82
2022-12-05T10:34:41.148Z,18.23
2022-12-05T10:35:43.573Z,16.52
2022-12-05T10:37:08.912Z,16.70
2022-12-05T10:38:15.543Z,16.38
2022-12-05T10:39:18.176Z,10.48
2022-12-05T10:40:21.490Z,19.60
2022-12-05T10:41:24.352Z,18.40
2022-12-05T10:42:31.648Z,17.17
2022-12-05T10:43:37.228Z,19.58
2022-12-05T10:44:40.462Z,15.40
2022-12-05T10:45:48.074Z,13.35
2022-12-05T10:46:50.619Z,17.95
2022-12-05T10:47:57.579Z,13.73
2022-12-05T10:48:59.974Z,15.88
2022-12-05T10:50:21.945Z,12.05
2022-12-05T10:51:31.291Z,13.85
2022-12-05T10:52:36.593Z,11.13
2022-12-05T10:53:50.766Z,15.05
2022-12-05T10:55:00.869Z,16.73
2022-12-05T10:57:30.025Z,15.65
2022-12-05T10:58:32.290Z,14.80
2022-12-05T10:59:47.769Z,12.50
2022-12-05T11:00:56.024Z,13.55
2022-12-05T11:01:59.173Z,14.40
2022-12-05T11:03:05.570Z,19.35
2022-12-05T11:04:22.802Z,11.45
2022-12-05T11:05:30.122Z,16.90
2022-12-05T11:06:33.011Z,12.77
2022-12-05T11:07:44.363Z,13.50
2022-12-05T11:10:29.749Z,12.50
2022-12-05T11:11:33.627Z,13.55
2022-12-05T11:12:36.040Z,13.00
2022-12-05T11:13:59.077Z,11.93
2022-12-05T11:15:15.697Z,20.42
2022-12-05T11:16:30.607Z,14.00
2022-12-05T11:17:40.320Z,19.63
2022-12-05T11:18:44.710Z,143.32
2022-12-05T11:19:47.030Z,67.65
2022-12-05T11:20:49.391Z,95.07
2022-12-05T11:21:52.358Z,77.95
2022-12-05T11:22:56.472Z,33.85
2022-12-05T11:24:27.473Z,30.05
2022-12-05T11:25:32.511Z,21.88
2022-12-05T11:26:37.229Z,20.10
2022-12-05T11:27:39.592Z,19.27
2022-12-05T11:28:42.045Z,21.08
2022-12-05T11:29:53.934Z,18.92
2022-12-05T11:31:14.441Z,15.13
2022-12-05T11:32:22.958Z,17.08
2022-12-05T11:33:27.724Z,16.63
2022-12-05T11:34:47.598Z,16.63
2022-12-05T11:35:53.464Z,21.95
2022-12-05T11:37:10.600Z,15.00
2022-12-05T11:38:15.649Z,14.60
2022-12-05T11:39:18.081Z,13.88
2022-12-05T11:40:51.252Z,19.52
2022-12-05T11:42:21.793Z,23.65
2022-12-05T11:43:57.856Z,16.15
2022-12-05T11:45:28.890Z,22.85
2022-12-05T11:47:14.950Z,24.95
2022-12-05T11:48:25.233Z,20.30
2022-12-05T11:49:33.159Z,15.95
2022-12-05T11:50:59.467Z,18.17
2022-12-05T11:52:19.488Z,14.43
2022-12-05T11:53:32.738Z,19.63
2022-12-05T11:55:05.676Z,15.85
2022-12-05T11:56:21.846Z,14.25
2022-12-05T11:57:32.394Z,14.25
2022-12-05T11:58:43.951Z,17.48
2022-12-05T12:00:19.606Z,15.80
2022-12-05T12:01:38.795Z,17.83
2022-12-05T12:02:44.976Z,16.27
2022-12-05T12:04:05.851Z,16.10
2022-12-05T12:05:37.680Z,16.23
2022-12-05T12:06:53.251Z,12.93
2022-12-05T12:08:14.163Z,17.48
2022-12-05T12:09:47.172Z,22.95
2022-12-05T12:11:08.185Z,68.40
2022-12-05T12:12:27.378Z,21.85
2022-12-05T12:13:55.229Z,28.65
2022-12-05T12:15:10.320Z,21.40
2022-12-05T12:16:30.384Z,22.20
2022-12-05T12:17:50.007Z,16.08
2022-12-05T12:19:15.635Z,16.92
2022-12-05T12:20:34.642Z,20.38
2022-12-05T12:22:04.887Z,15.60
2022-12-05T12:23:18.925Z,17.52
2022-12-05T12:25:09.275Z,19.38
2022-12-05T12:26:53.335Z,18.73
2022-12-05T12:28:19.109Z,20.83
2022-12-05T12:29:39.558Z,24.45
2022-12-05T12:31:02.366Z,15.98
2022-12-05T12:32:23.286Z,21.20
2022-12-05T12:33:31.409Z,18.65
2022-12-05T12:34:39.797Z,18.60
2022-12-05T12:35:53.953Z,20.00
2022-12-05T12:37:14.007Z,17.77
2022-12-05T12:38:48.153Z,15.80
2022-12-05T12:40:01.323Z,49.83
2022-12-05T12:41:28.123Z,28.77
2022-12-05T12:42:48.140Z,39.05
2022-12-05T12:44:19.633Z,34.53
2022-12-05T12:45:27.602Z,50.00
2022-12-05T12:46:35.594Z,38.92
2022-12-05T12:47:46.670Z,35.42
2022-12-05T12:49:16.769Z,24.55
2022-12-05T12:50:31.090Z,21.70
2022-12-05T12:51:33.965Z,17.73
2022-12-05T12:53:00.710Z,15.70
2022-12-05T12:55:13.769Z,20.95
2022-12-05T12:56:15.985Z,14.98
2022-12-05T12:57:29.299Z,17.60
2022-12-05T12:58:59.552Z,14.25
2022-12-05T13:00:12.519Z,17.98
2022-12-05T13:01:17.968Z,15.50
2022-12-05T13:02:28.731Z,14.43
2022-12-05T13:03:38.266Z,19.27
2022-12-05T13:05:08.853Z,15.73
2022-12-05T13:06:21.301Z,19.02
2022-12-05T13:07:34.677Z,15.05
2022-12-05T13:08:50.673Z,14.02
2022-12-05T13:10:06.020Z,13.55
2022-12-05T13:11:11.377Z,19.83
2022-12-05T13:12:17.830Z,12.85
2022-12-05T13:13:25.843Z,13.80
2022-12-05T13:14:30.329Z,17.25
2022-12-05T13:15:53.605Z,15.45
2022-12-05T13:16:58.422Z,14.10
2022-12-05T13:18:03.237Z,18.70
2022-12-05T13:19:06.739Z,48.08
2022-12-05T13:20:21.518Z,78.10
2022-12-05T13:21:24.747Z,64.35
2022-12-05T13:22:29.382Z,52.83
2022-12-05T13:23:47.389Z,35.00
2022-12-05T13:24:54.251Z,22.15
2022-12-05T13:25:59.250Z,17.80
2022-12-05T13:27:07.395Z,14.48
2022-12-05T13:28:29.317Z,17.80
2022-12-05T13:29:40.807Z,15.13
2022-12-05T13:31:02.387Z,16.02
2022-12-05T13:32:07.077Z,12.13
2022-12-05T13:33:25.529Z,13.18
2022-12-05T13:34:31.055Z,13.68
2022-12-05T13:35:54.838Z,11.65
2022-12-05T13:37:17.528Z,14.60
2022-12-05T13:38:49.719Z,10.35
2022-12-05T13:40:13.859Z,10.95
2022-12-05T13:41:35.520Z,11.18
2022-12-05T13:42:38.664Z,10.07
2022-12-05T13:43:49.751Z,9.60
2022-12-05T13:45:09.722Z,10.95
2022-12-05T13:46:33.216Z,11.95
2022-12-05T13:47:46.714Z,13.40
2022-12-05T13:48:49.961Z,8.98
2022-12-05T13:50:19.885Z,12.05
2022-12-05T13:51:40.728Z,11.57
2022-12-05T13:52:48.274Z,13.32
2022-12-05T13:54:04.359Z,16.45
2022-12-05T13:55:36.236Z,9.70
2022-12-05T13:56:52.775Z,10.85
2022-12-05T13:57:58.603Z,11.57
2022-12-05T13:59:01.896Z,11.00
2022-12-05T14:00:10.218Z,10.93
2022-12-05T14:01:27.235Z,9.32
2022-12-05T14:02:42.236Z,11.90
2022-12-05T14:03:47.492Z,8.05
2022-12-05T14:04:50.919Z,11.25
2022-12-05T14:05:54.522Z,10.25
2022-12-05T14:06:58.650Z,9.05
2022-12-05T14:08:20.991Z,9.70
2022-12-05T14:09:48.529Z,11.00
2022-12-05T14:10:50.883Z,10.90
2022-12-05T14:12:11.438Z,11.25
2022-12-05T14:13:16.550Z,10.43
2022-12-05T14:14:56.982Z,8.93
2022-12-05T14:16:23.601Z,9.52
2022-12-05T14:17:45.083Z,12.32
2022-12-05T14:18:55.469Z,10.32
2022-12-05T14:20:00.947Z,13.35
2022-12-05T14:21:10.566Z,9.85
2022-12-05T14:22:47.505Z,9.57
2022-12-05T14:24:04.595Z,10.48
2022-12-05T14:25:37.143Z,10.27
2022-12-05T14:26:42.671Z,8.55
2022-12-05T14:27:58.532Z,10.00
2022-12-05T14:29:25.565Z,9.13
2022-12-05T14:31:02.266Z,8.95
2022-12-05T14:32:37.429Z,9.30
2022-12-05T14:33:40.270Z,10.65
2022-12-05T14:35:16.928Z,10.10
2022-12-05T14:36:29.102Z,12.30
2022-12-05T14:37:56.364Z,11.40
2022-12-05T14:38:58.787Z,11.70
2022-12-05T14:40:04.634Z,8.43
2022-12-05T14:41:32.069Z,10.45
2022-12-05T14:42:54.034Z,15.80
2022-12-05T14:43:56.874Z,9.75
2022-12-05T14:45:02.202Z,10.57
2022-12-05T14:46:08.450Z,8.70
2022-12-05T14:47:19.609Z,9.60
2022-12-05T14:48:33.556Z,9.82
2022-12-05T14:49:52.213Z,10.00
2022-12-05T14:50:56.487Z,11.10
2022-12-05T14:51:59.790Z,10.77
2022-12-05T14:53:20.555Z,10.52
2022-12-05T14:54:24.799Z,9.98
2022-12-05T14:55:27.362Z,8.15
2022-12-05T14:56:31.491Z,9.05
2022-12-05T14:57:37.610Z,9.13
2022-12-05T14:58:51.190Z,11.40
2022-12-05T15:00:03.074Z,9.98